Wetterdaten: Woche 13.02.12 - 19.02.12 (KW7)
Datum Zeit Temperatur Luftfeuchte Luftdruck Niederschlag Windrichtung Sonnenschein Solar Wind
13.02.2012 00:00 -15,9 C 83 % 1029,9 hPa 0,0 l/m N 0,00 h 0 W/m 0,0 km/h (0 Bft)
13.02.2012 01:00 -16,6 C 83 % 1029,9 hPa 0,0 l/m N 0,00 h 0 W/m 0,0 km/h (0 Bft)
13.02.2012 02:00 -17,3 C 84 % 1029,7 hPa 0,0 l/m N 0,00 h 0 W/m 0,0 km/h (0 Bft)
13.02.2012 03:00 -17,7 C 85 % 1029,4 hPa 0,0 l/m N 0,00 h 0 W/m 0,0 km/h (0 Bft)
13.02.2012 04:00 -18,1 C 85 % 1029,1 hPa 0,0 l/m N 0,00 h 0 W/m 0,0 km/h (0 Bft)
13.02.2012 05:00 -17,8 C 86 % 1029,1 hPa 0,0 l/m N 0,00 h 0 W/m 0,7 km/h (0 Bft)
13.02.2012 06:00 -17,1 C 87 % 1028,8 hPa 0,0 l/m N 0,00 h 0 W/m 0,7 km/h (0 Bft)
13.02.2012 07:00 -16,1 C 88 % 1028,4 hPa 0,0 l/m N 0,00 h 7 W/m 0,5 km/h (0 Bft)
13.02.2012 08:00 -14,7 C 90 % 1028,4 hPa 0,0 l/m N 0,00 h 21 W/m 0,4 km/h (0 Bft)
13.02.2012 09:00 -12,1 C 91 % 1028,3 hPa 0,0 l/m S-SW 0,00 h 55 W/m 4,0 km/h (1 Bft)
13.02.2012 10:00 -10,1 C 88 % 1027,9 hPa 0,0 l/m S-SW 0,00 h 83 W/m 7,9 km/h (2 Bft)
13.02.2012 11:00 -9,3 C 86 % 1027,7 hPa 0,0 l/m S-SW 0,00 h 117 W/m 12,0 km/h (2 Bft)
13.02.2012 12:00 -8,1 C 84 % 1026,7 hPa 0,0 l/m S-SW 0,00 h 142 W/m 10,9 km/h (2 Bft)
13.02.2012 13:00 -6,8 C 79 % 1025,5 hPa 0,0 l/m S-SW 0,00 h 181 W/m 13,4 km/h (3 Bft)
13.02.2012 14:00 -6,4 C 78 % 1024,9 hPa 0,0 l/m S-SW 0,00 h 127 W/m 13,0 km/h (3 Bft)
13.02.2012 15:00 -6,3 C 79 % 1024,2 hPa 0,0 l/m S-SW 0,00 h 91 W/m 13,6 km/h (3 Bft)
13.02.2012 16:00 -6,8 C 84 % 1023,7 hPa 0,0 l/m S-SW 0,00 h 37 W/m 15,8 km/h (3 Bft)
13.02.2012 17:00 -7,0 C 86 % 1023,1 hPa 0,0 l/m S-SW 0,00 h 9 W/m 15,4 km/h (3 Bft)
13.02.2012 18:00 -7,1 C 87 % 1022,7 hPa 0,0 l/m S-SW 0,00 h 0 W/m 14,6 km/h (3 Bft)
13.02.2012 19:00 -6,9 C 88 % 1022,3 hPa 0,0 l/m S 0,00 h 0 W/m 10,5 km/h (2 Bft)
13.02.2012 20:00 -6,9 C 90 % 1022,0 hPa 0,2 l/m S-SW 0,00 h 0 W/m 10,3 km/h (2 Bft)
13.02.2012 21:00 -6,8 C 91 % 1021,5 hPa 0,6 l/m S-SW 0,00 h 0 W/m 7,5 km/h (2 Bft)
13.02.2012 22:00 -6,8 C 92 % 1021,1 hPa 0,6 l/m S-SW 0,00 h 0 W/m 6,6 km/h (2 Bft)
13.02.2012 23:00 -6,7 C 93 % 1020,6 hPa 0,6 l/m S-SW 0,00 h 0 W/m 7,5 km/h (2 Bft)
14.02.2012 00:00 -6,6 C 93 % 1020,1 hPa 0,6 l/m SW 0,00 h 0 W/m 6,4 km/h (2 Bft)
14.02.2012 01:00 -6,5 C 93 % 1019,6 hPa 0,6 l/m S-SW 0,00 h 0 W/m 7,2 km/h (2 Bft)
14.02.2012 02:00 -6,3 C 93 % 1019,4 hPa 0,6 l/m SW 0,00 h 0 W/m 6,9 km/h (2 Bft)
14.02.2012 03:00 -6,2 C 93 % 1018,9 hPa 0,4 l/m S-SW 0,00 h 0 W/m 4,5 km/h (1 Bft)
14.02.2012 04:00 -6,1 C 94 % 1018,6 hPa 0,2 l/m S-SW 0,00 h 0 W/m 4,3 km/h (1 Bft)
14.02.2012 05:00 -5,9 C 94 % 1018,6 hPa 0,2 l/m S-SW 0,00 h 0 W/m 6,8 km/h (2 Bft)
14.02.2012 06:00 -5,8 C 94 % 1018,4 hPa 0,0 l/m S-SW 0,00 h 0 W/m 5,5 km/h (1 Bft)
14.02.2012 07:00 -5,7 C 94 % 1018,4 hPa 0,0 l/m S-SW 0,00 h 0 W/m 5,3 km/h (1 Bft)
14.02.2012 08:00 -5,4 C 94 % 1018,6 hPa 0,0 l/m SW 0,00 h 15 W/m 4,8 km/h (1 Bft)
14.02.2012 09:00 -4,5 C 95 % 1018,7 hPa 0,0 l/m SW 0,00 h 48 W/m 3,3 km/h (1 Bft)
14.02.2012 10:00 -2,5 C 92 % 1018,6 hPa 0,0 l/m S-SW 0,00 h 84 W/m 8,9 km/h (2 Bft)
14.02.2012 11:00 -1,6 C 88 % 1018,8 hPa 0,0 l/m S-SW 0,00 h 82 W/m 9,0 km/h (2 Bft)
14.02.2012 12:00 -1,1 C 86 % 1018,6 hPa 0,0 l/m SW 0,00 h 120 W/m 10,6 km/h (2 Bft)
14.02.2012 13:00 -1,3 C 87 % 1018,2 hPa 0,0 l/m SW 0,00 h 146 W/m 13,3 km/h (3 Bft)
14.02.2012 14:00 -1,2 C 87 % 1018,1 hPa 0,0 l/m SW 0,00 h 116 W/m 12,1 km/h (2 Bft)
14.02.2012 15:00 -0,8 C 87 % 1017,8 hPa 0,0 l/m SW 0,25 h 130 W/m 12,6 km/h (3 Bft)
14.02.2012 16:00 -1,2 C 87 % 1017,4 hPa 0,0 l/m SW 0,33 h 90 W/m 14,5 km/h (3 Bft)
14.02.2012 17:00 -2,0 C 90 % 1017,5 hPa 0,0 l/m W-SW 0,00 h 13 W/m 13,3 km/h (3 Bft)
14.02.2012 18:00 -2,2 C 92 % 1017,8 hPa 0,0 l/m SW 0,00 h 0 W/m 12,2 km/h (2 Bft)
14.02.2012 19:00 -2,2 C 93 % 1017,8 hPa 0,0 l/m W-SW 0,00 h 0 W/m 12,4 km/h (3 Bft)
14.02.2012 20:00 -2,1 C 93 % 1017,4 hPa 0,0 l/m W-SW 0,00 h 0 W/m 14,4 km/h (3 Bft)
14.02.2012 21:00 -2,1 C 94 % 1017,0 hPa 0,2 l/m W-SW 0,00 h 0 W/m 16,8 km/h (3 Bft)
14.02.2012 22:00 -1,9 C 95 % 1016,7 hPa 0,2 l/m W-SW 0,00 h 0 W/m 14,8 km/h (3 Bft)
14.02.2012 23:00 -1,7 C 95 % 1016,3 hPa 0,0 l/m W-SW 0,00 h 0 W/m 15,7 km/h (3 Bft)
15.02.2012 00:00 -1,7 C 95 % 1015,9 hPa 0,0 l/m SW 0,00 h 0 W/m 13,8 km/h (3 Bft)
15.02.2012 01:00 -1,5 C 95 % 1015,2 hPa 0,0 l/m W-SW 0,00 h 0 W/m 19,7 km/h (3 Bft)
15.02.2012 02:00 -1,4 C 95 % 1014,7 hPa 0,0 l/m W-SW 0,00 h 0 W/m 19,7 km/h (3 Bft)
15.02.2012 03:00 -1,2 C 95 % 1013,4 hPa 0,0 l/m W-SW 0,00 h 0 W/m 26,7 km/h (4 Bft)
15.02.2012 04:00 -1,1 C 95 % 1012,4 hPa 0,0 l/m SW 0,00 h 0 W/m 29,0 km/h (5 Bft)
15.02.2012 05:00 -0,9 C 95 % 1011,9 hPa 0,0 l/m W-SW 0,00 h 0 W/m 25,9 km/h (4 Bft)
15.02.2012 06:00 -0,7 C 95 % 1011,1 hPa 0,0 l/m W-SW 0,00 h 0 W/m 32,7 km/h (5 Bft)
15.02.2012 07:00 -0,7 C 96 % 1010,9 hPa 0,4 l/m W-SW 0,00 h 7 W/m 34,6 km/h (5 Bft)
15.02.2012 08:00 -0,5 C 97 % 1010,8 hPa 0,2 l/m W-SW 0,00 h 27 W/m 35,5 km/h (5 Bft)
15.02.2012 09:00 -0,1 C 96 % 1010,9 hPa 0,2 l/m W-SW 0,00 h 44 W/m 32,3 km/h (5 Bft)
15.02.2012 10:00 0,3 C 95 % 1010,9 hPa 0,4 l/m W-SW 0,00 h 76 W/m 36,4 km/h (5 Bft)
15.02.2012 11:00 0,6 C 95 % 1011,3 hPa 0,6 l/m W-SW 0,00 h 86 W/m 29,0 km/h (5 Bft)
15.02.2012 12:00 0,6 C 96 % 1011,3 hPa 0,8 l/m W 0,00 h 88 W/m 27,1 km/h (4 Bft)
15.02.2012 13:00 0,9 C 96 % 1011,6 hPa 0,4 l/m W 0,00 h 87 W/m 26,1 km/h (4 Bft)
15.02.2012 14:00 0,7 C 96 % 1012,5 hPa 1,4 l/m W-NW 0,00 h 52 W/m 15,3 km/h (3 Bft)
15.02.2012 15:00 0,5 C 96 % 1012,9 hPa 0,6 l/m W-NW 0,00 h 51 W/m 12,8 km/h (3 Bft)
15.02.2012 16:00 0,5 C 97 % 1013,1 hPa 0,0 l/m W 0,00 h 27 W/m 11,0 km/h (2 Bft)
15.02.2012 17:00 0,6 C 97 % 1013,8 hPa 0,0 l/m W 0,00 h 9 W/m 11,6 km/h (2 Bft)
15.02.2012 18:00 0,6 C 97 % 1014,9 hPa 0,0 l/m W 0,00 h 0 W/m 16,4 km/h (3 Bft)
15.02.2012 19:00 0,5 C 97 % 1015,5 hPa 0,2 l/m W 0,00 h 0 W/m 17,8 km/h (3 Bft)
15.02.2012 20:00 0,5 C 96 % 1016,0 hPa 0,0 l/m W 0,00 h 0 W/m 21,0 km/h (4 Bft)
15.02.2012 21:00 0,5 C 96 % 1016,6 hPa 0,8 l/m W 0,00 h 0 W/m 6,6 km/h (2 Bft)
15.02.2012 22:00 0,4 C 97 % 1017,1 hPa 0,2 l/m W 0,00 h 0 W/m 14,2 km/h (3 Bft)
15.02.2012 23:00 0,4 C 97 % 1017,5 hPa 0,2 l/m W 0,00 h 0 W/m 14,6 km/h (3 Bft)
16.02.2012 00:00 0,3 C 97 % 1017,8 hPa 0,8 l/m W 0,00 h 0 W/m 11,0 km/h (2 Bft)
16.02.2012 01:00 0,4 C 97 % 1018,1 hPa 0,4 l/m W-NW 0,00 h 0 W/m 9,0 km/h (2 Bft)
16.02.2012 02:00 0,3 C 97 % 1018,5 hPa 0,2 l/m W-NW 0,00 h 0 W/m 2,1 km/h (1 Bft)
16.02.2012 03:00 0,2 C 97 % 1019,0 hPa 0,0 l/m N 0,00 h 0 W/m 0,0 km/h (0 Bft)
16.02.2012 04:00 -0,1 C 97 % 1019,7 hPa 0,0 l/m N 0,00 h 0 W/m 0,0 km/h (0 Bft)
16.02.2012 05:00 -0,3 C 97 % 1020,6 hPa 0,0 l/m N 0,00 h 0 W/m 0,0 km/h (0 Bft)
16.02.2012 06:00 -0,5 C 97 % 1021,1 hPa 0,0 l/m N 0,00 h 0 W/m 0,0 km/h (0 Bft)
16.02.2012 07:00 -0,6 C 97 % 1021,7 hPa 0,0 l/m N 0,00 h 5 W/m 0,0 km/h (0 Bft)
16.02.2012 08:00 -0,6 C 97 % 1022,7 hPa 0,0 l/m W-NW 0,00 h 24 W/m 2,0 km/h (1 Bft)
16.02.2012 09:00 0,0 C 96 % 1023,5 hPa 0,0 l/m NW 0,00 h 63 W/m 9,3 km/h (2 Bft)
16.02.2012 10:00 0,8 C 92 % 1023,9 hPa 0,0 l/m NW 0,00 h 171 W/m 6,3 km/h (2 Bft)
16.02.2012 11:00 1,2 C 86 % 1024,5 hPa 0,0 l/m W-NW 0,67 h 347 W/m 8,0 km/h (2 Bft)
16.02.2012 12:00 1,6 C 83 % 1024,4 hPa 0,0 l/m NW 0,42 h 309 W/m 8,2 km/h (2 Bft)
16.02.2012 13:00 1,8 C 81 % 1024,6 hPa 0,0 l/m W 0,00 h 214 W/m 9,4 km/h (2 Bft)
16.02.2012 14:00 2,0 C 80 % 1024,4 hPa 0,0 l/m W-SW 0,08 h 159 W/m 6,5 km/h (2 Bft)
16.02.2012 15:00 1,7 C 81 % 1024,6 hPa 0,0 l/m W-SW 0,00 h 60 W/m 3,3 km/h (1 Bft)
16.02.2012 16:00 1,6 C 84 % 1024,8 hPa 0,0 l/m W-SW 0,00 h 58 W/m 4,5 km/h (1 Bft)
16.02.2012 17:00 1,2 C 87 % 1025,2 hPa 0,0 l/m W-SW 0,08 h 18 W/m 6,4 km/h (2 Bft)
16.02.2012 18:00 0,9 C 87 % 1025,5 hPa 0,0 l/m W 0,00 h 0 W/m 6,3 km/h (2 Bft)
16.02.2012 19:00 0,2 C 88 % 1025,9 hPa 0,0 l/m W 0,00 h 0 W/m 4,8 km/h (1 Bft)
16.02.2012 20:00 -0,8 C 89 % 1025,9 hPa 0,0 l/m W 0,00 h 0 W/m 5,5 km/h (1 Bft)
16.02.2012 21:00 -1,4 C 91 % 1026,3 hPa 0,0 l/m W 0,00 h 0 W/m 5,2 km/h (1 Bft)
16.02.2012 22:00 -1,4 C 91 % 1026,3 hPa 0,0 l/m W 0,00 h 0 W/m 3,3 km/h (1 Bft)
16.02.2012 23:00 -1,3 C 92 % 1026,3 hPa 0,0 l/m W-SW 0,00 h 0 W/m 4,8 km/h (1 Bft)
17.02.2012 00:00 -1,1 C 92 % 1026,2 hPa 0,0 l/m S-SW 0,00 h 0 W/m 7,4 km/h (2 Bft)
17.02.2012 01:00 -0,8 C 93 % 1026,1 hPa 0,0 l/m SW 0,00 h 0 W/m 9,0 km/h (2 Bft)
17.02.2012 02:00 -0,9 C 92 % 1026,0 hPa 0,0 l/m SW 0,00 h 0 W/m 11,4 km/h (2 Bft)
17.02.2012 03:00 -1,1 C 94 % 1025,8 hPa 0,0 l/m S-SW 0,00 h 0 W/m 7,8 km/h (2 Bft)
17.02.2012 04:00 -1,1 C 94 % 1025,3 hPa 0,0 l/m S-SW 0,00 h 0 W/m 7,6 km/h (2 Bft)
17.02.2012 05:00 -1,1 C 95 % 1025,5 hPa 0,0 l/m SW 0,00 h 0 W/m 6,7 km/h (2 Bft)
17.02.2012 06:00 -0,8 C 95 % 1025,6 hPa 0,0 l/m SW 0,00 h 0 W/m 8,4 km/h (2 Bft)
17.02.2012 07:00 -0,7 C 94 % 1025,8 hPa 0,0 l/m SW 0,00 h 7 W/m 11,4 km/h (2 Bft)
17.02.2012 08:00 -0,6 C 93 % 1026,1 hPa 0,0 l/m SW 0,00 h 16 W/m 10,4 km/h (2 Bft)
17.02.2012 09:00 -0,2 C 92 % 1026,2 hPa 0,0 l/m SW 0,00 h 66 W/m 13,2 km/h (3 Bft)
17.02.2012 10:00 0,4 C 91 % 1026,4 hPa 0,0 l/m SW 0,00 h 146 W/m 11,8 km/h (2 Bft)
17.02.2012 11:00 1,1 C 90 % 1026,3 hPa 0,0 l/m S-SW 0,00 h 192 W/m 12,8 km/h (3 Bft)
17.02.2012 12:00 2,0 C 87 % 1026,2 hPa 0,0 l/m SW 0,00 h 219 W/m 13,2 km/h (3 Bft)
17.02.2012 13:00 2,9 C 83 % 1025,7 hPa 0,0 l/m SW 0,42 h 284 W/m 16,6 km/h (3 Bft)
17.02.2012 14:00 3,3 C 82 % 1025,5 hPa 0,0 l/m SW 0,25 h 236 W/m 15,4 km/h (3 Bft)
17.02.2012 15:00 3,1 C 83 % 1025,4 hPa 0,0 l/m SW 0,00 h 116 W/m 13,3 km/h (3 Bft)
17.02.2012 16:00 2,7 C 85 % 1025,1 hPa 0,0 l/m W-SW 0,00 h 71 W/m 15,7 km/h (3 Bft)
17.02.2012 17:00 2,2 C 87 % 1025,0 hPa 0,0 l/m SW 0,00 h 13 W/m 13,0 km/h (3 Bft)
17.02.2012 18:00 1,9 C 88 % 1025,3 hPa 0,0 l/m SW 0,00 h 0 W/m 9,8 km/h (2 Bft)
17.02.2012 19:00 1,5 C 91 % 1025,4 hPa 0,0 l/m SW 0,00 h 0 W/m 8,2 km/h (2 Bft)
17.02.2012 20:00 1,2 C 92 % 1025,0 hPa 0,0 l/m S-SW 0,00 h 0 W/m 7,4 km/h (2 Bft)
17.02.2012 21:00 1,1 C 93 % 1025,0 hPa 0,0 l/m S-SW 0,00 h 0 W/m 3,2 km/h (1 Bft)
17.02.2012 22:00 1,0 C 93 % 1024,7 hPa 0,0 l/m S-SW 0,00 h 0 W/m 4,4 km/h (1 Bft)
17.02.2012 23:00 0,9 C 92 % 1024,4 hPa 0,0 l/m S-SW 0,00 h 0 W/m 2,3 km/h (1 Bft)
18.02.2012 00:00 1,0 C 92 % 1024,2 hPa 0,0 l/m S-SW 0,00 h 0 W/m 4,1 km/h (1 Bft)
18.02.2012 01:00 0,9 C 93 % 1024,0 hPa 0,0 l/m S 0,00 h 0 W/m 7,1 km/h (2 Bft)
18.02.2012 02:00 0,8 C 93 % 1023,7 hPa 0,0 l/m S-SW 0,00 h 0 W/m 8,7 km/h (2 Bft)
18.02.2012 03:00 0,8 C 94 % 1023,1 hPa 0,0 l/m S-SW 0,00 h 0 W/m 10,5 km/h (2 Bft)
18.02.2012 04:00 0,7 C 94 % 1022,6 hPa 0,0 l/m S-SW 0,00 h 0 W/m 9,0 km/h (2 Bft)
18.02.2012 05:00 0,7 C 94 % 1022,3 hPa 0,0 l/m S-SW 0,00 h 0 W/m 3,5 km/h (1 Bft)
18.02.2012 06:00 0,7 C 94 % 1021,9 hPa 0,0 l/m S-SW 0,00 h 0 W/m 3,6 km/h (1 Bft)
18.02.2012 07:00 0,5 C 94 % 1021,8 hPa 0,0 l/m S-SW 0,00 h 9 W/m 5,5 km/h (1 Bft)
18.02.2012 08:00 0,5 C 94 % 1021,8 hPa 0,0 l/m S-SW 0,00 h 54 W/m 5,6 km/h (1 Bft)
18.02.2012 09:00 1,3 C 91 % 1021,6 hPa 0,0 l/m S-SW 0,00 h 136 W/m 8,4 km/h (2 Bft)
18.02.2012 10:00 1,8 C 90 % 1021,4 hPa 0,0 l/m S-SW 0,00 h 150 W/m 10,1 km/h (2 Bft)
18.02.2012 11:00 2,3 C 88 % 1021,4 hPa 0,0 l/m SW 0,08 h 228 W/m 11,7 km/h (2 Bft)
18.02.2012 12:00 3,5 C 85 % 1020,7 hPa 0,0 l/m S-SW 0,75 h 481 W/m 12,2 km/h (2 Bft)
18.02.2012 13:00 4,4 C 81 % 1019,9 hPa 0,0 l/m S-SW 1,00 h 480 W/m 12,8 km/h (3 Bft)
18.02.2012 14:00 4,1 C 83 % 1019,4 hPa 0,0 l/m SW 0,42 h 230 W/m 12,9 km/h (3 Bft)
18.02.2012 15:00 4,5 C 81 % 1019,0 hPa 0,0 l/m SW 1,00 h 327 W/m 12,6 km/h (3 Bft)
18.02.2012 16:00 3,9 C 82 % 1018,4 hPa 0,0 l/m SW 0,50 h 105 W/m 7,5 km/h (2 Bft)
18.02.2012 17:00 2,8 C 85 % 1017,8 hPa 0,0 l/m SW 0,17 h 27 W/m 4,4 km/h (1 Bft)
18.02.2012 18:00 1,7 C 89 % 1017,6 hPa 0,0 l/m SW 0,00 h 0 W/m 4,3 km/h (1 Bft)
18.02.2012 19:00 1,1 C 88 % 1017,3 hPa 0,0 l/m N 0,00 h 0 W/m 0,9 km/h (0 Bft)
18.02.2012 20:00 0,3 C 89 % 1016,9 hPa 0,0 l/m SW 0,00 h 0 W/m 1,3 km/h (1 Bft)
18.02.2012 21:00 -0,2 C 92 % 1016,7 hPa 0,0 l/m SW 0,00 h 0 W/m 2,8 km/h (1 Bft)
18.02.2012 22:00 -0,2 C 93 % 1016,1 hPa 0,0 l/m SW 0,00 h 0 W/m 5,4 km/h (1 Bft)
18.02.2012 23:00 1,0 C 93 % 1015,6 hPa 0,0 l/m SW 0,00 h 0 W/m 12,8 km/h (3 Bft)
19.02.2012 00:00 1,2 C 90 % 1015,0 hPa 0,0 l/m S-SW 0,00 h 0 W/m 6,6 km/h (2 Bft)
19.02.2012 01:00 1,2 C 92 % 1014,6 hPa 0,0 l/m SW 0,00 h 0 W/m 9,7 km/h (2 Bft)
19.02.2012 02:00 1,2 C 93 % 1014,1 hPa 0,0 l/m SW 0,00 h 0 W/m 11,6 km/h (2 Bft)
19.02.2012 03:00 0,9 C 94 % 1013,6 hPa 0,0 l/m SW 0,00 h 0 W/m 9,9 km/h (2 Bft)
19.02.2012 04:00 0,9 C 95 % 1013,3 hPa 0,8 l/m SW 0,00 h 0 W/m 13,6 km/h (3 Bft)
19.02.2012 05:00 1,9 C 95 % 1013,2 hPa 0,6 l/m W-SW 0,00 h 0 W/m 23,7 km/h (4 Bft)
19.02.2012 06:00 1,7 C 95 % 1013,6 hPa 2,4 l/m W-SW 0,00 h 0 W/m 21,6 km/h (4 Bft)
19.02.2012 07:00 1,3 C 96 % 1014,2 hPa 0,2 l/m SW 0,00 h 7 W/m 21,3 km/h (4 Bft)
19.02.2012 08:00 1,5 C 96 % 1014,9 hPa 0,2 l/m W-SW 0,00 h 28 W/m 16,2 km/h (3 Bft)
19.02.2012 09:00 2,2 C 97 % 1015,4 hPa 0,0 l/m W-SW 0,00 h 55 W/m 22,4 km/h (4 Bft)
19.02.2012 10:00 2,5 C 95 % 1016,1 hPa 0,4 l/m SW 0,00 h 73 W/m 20,0 km/h (4 Bft)
19.02.2012 11:00 1,6 C 91 % 1017,7 hPa 0,0 l/m N-NW 0,00 h 124 W/m 18,2 km/h (3 Bft)
19.02.2012 12:00 1,7 C 89 % 1018,4 hPa 0,0 l/m NW 0,00 h 145 W/m 10,5 km/h (2 Bft)
19.02.2012 13:00 2,1 C 87 % 1019,0 hPa 0,0 l/m W-NW 0,00 h 131 W/m 10,2 km/h (2 Bft)
19.02.2012 14:00 2,3 C 78 % 1019,6 hPa 0,0 l/m W-NW 0,25 h 165 W/m 16,1 km/h (3 Bft)
19.02.2012 15:00 2,0 C 72 % 1020,3 hPa 0,0 l/m NW 0,17 h 156 W/m 13,6 km/h (3 Bft)
19.02.2012 16:00 2,0 C 68 % 1021,4 hPa 0,0 l/m NW 0,25 h 103 W/m 9,8 km/h (2 Bft)
19.02.2012 17:00 1,6 C 66 % 1022,2 hPa 0,0 l/m W-NW 0,00 h 14 W/m 8,0 km/h (2 Bft)
19.02.2012 18:00 1,1 C 68 % 1023,3 hPa 0,0 l/m NW 0,00 h 0 W/m 8,4 km/h (2 Bft)
19.02.2012 19:00 0,6 C 70 % 1024,4 hPa 0,0 l/m W-NW 0,00 h 0 W/m 6,4 km/h (2 Bft)
19.02.2012 20:00 -0,4 C 74 % 1025,2 hPa 0,0 l/m NW 0,00 h 0 W/m 9,3 km/h (2 Bft)
19.02.2012 21:00 -0,9 C 77 % 1026,0 hPa 0,0 l/m N-NW 0,00 h 0 W/m 12,2 km/h (2 Bft)
19.02.2012 22:00 -1,5 C 80 % 1026,6 hPa 0,0 l/m N-NW 0,00 h 0 W/m 4,0 km/h (1 Bft)
19.02.2012 23:00 -2,1 C 82 % 1027,3 hPa 0,0 l/m N 0,00 h 0 W/m 1,7 km/h (1 Bft)
Min-Datum _ 13.02.12 19.02.12 15.02.12 - - - - 13.02.12
_ Min-Zeit 04:50 17:00 08:30 - - - - 00:00
Minimum _ -18,3 C 65 % 1010,5 hPa - - - - 0,0 km/h (0 Bft)
Max-Datum _ 18.02.12 17.02.12 13.02.12 19.02.12 - 14.02.12 18.02.12 15.02.12
_ Max-Zeit 13:50 07:00 00:40 06:10 - 15:40 12:45 08:45
Maximum _ 4,7 C 100 % 1030,2 hPa 2,4 l/m - 0,08 h 751 W/m 49,9 km/h
W-SW (6 Bft)
Durchschnitt _ -1,5 C 90 % 1020,8 hPa #17,4 l/m SW #7:05 h 109 W/m 10,5 km/h (2 Bft)